sensor_id;sensor_type;location;lat;lon;timestamp;P1;durP1;ratioP1;P2;durP2;ratioP2
417;SDS011;49;48.530;9.200;2023-05-07T00:01:42;10.20;;;5.20;;
417;SDS011;49;48.530;9.200;2023-05-07T00:04:09;12.40;;;5.53;;
417;SDS011;49;48.530;9.200;2023-05-07T00:06:37;7.93;;;5.27;;
417;SDS011;49;48.530;9.200;2023-05-07T00:09:04;7.00;;;5.07;;
417;SDS011;49;48.530;9.200;2023-05-07T00:11:31;13.30;;;5.43;;
417;SDS011;49;48.530;9.200;2023-05-07T00:13:59;13.60;;;6.00;;
417;SDS011;49;48.530;9.200;2023-05-07T00:16:25;6.73;;;5.27;;
417;SDS011;49;48.530;9.200;2023-05-07T00:18:52;8.57;;;5.50;;
417;SDS011;49;48.530;9.200;2023-05-07T00:21:19;15.13;;;5.60;;
417;SDS011;49;48.530;9.200;2023-05-07T00:23:48;7.60;;;5.70;;
417;SDS011;49;48.530;9.200;2023-05-07T00:26:15;8.83;;;5.30;;
417;SDS011;49;48.530;9.200;2023-05-07T00:28:42;11.50;;;5.80;;
417;SDS011;49;48.530;9.200;2023-05-07T00:31:09;7.90;;;5.57;;
417;SDS011;49;48.530;9.200;2023-05-07T00:33:36;11.13;;;6.10;;
417;SDS011;49;48.530;9.200;2023-05-07T00:36:04;12.40;;;6.50;;
417;SDS011;49;48.530;9.200;2023-05-07T00:38:31;9.30;;;5.90;;
417;SDS011;49;48.530;9.200;2023-05-07T00:40:59;10.03;;;5.80;;
417;SDS011;49;48.530;9.200;2023-05-07T00:43:27;9.60;;;4.80;;
417;SDS011;49;48.530;9.200;2023-05-07T00:45:54;11.50;;;5.80;;
417;SDS011;49;48.530;9.200;2023-05-07T00:48:21;6.40;;;4.97;;
417;SDS011;49;48.530;9.200;2023-05-07T00:50:49;8.93;;;5.67;;
417;SDS011;49;48.530;9.200;2023-05-07T00:53:16;8.67;;;5.40;;
417;SDS011;49;48.530;9.200;2023-05-07T00:55:43;10.67;;;5.73;;
417;SDS011;49;48.530;9.200;2023-05-07T00:58:12;6.77;;;5.07;;
417;SDS011;49;48.530;9.200;2023-05-07T01:00:39;13.87;;;5.83;;
417;SDS011;49;48.530;9.200;2023-05-07T01:03:06;16.23;;;5.60;;
417;SDS011;49;48.530;9.200;2023-05-07T01:05:33;8.63;;;5.23;;
417;SDS011;49;48.530;9.200;2023-05-07T01:08:01;7.93;;;5.13;;
417;SDS011;49;48.530;9.200;2023-05-07T01:10:30;8.83;;;4.90;;
417;SDS011;49;48.530;9.200;2023-05-07T01:12:57;6.30;;;4.83;;
417;SDS011;49;48.530;9.200;2023-05-07T01:15:27;17.60;;;4.70;;
417;SDS011;49;48.530;9.200;2023-05-07T01:17:54;10.70;;;5.30;;
417;SDS011;49;48.530;9.200;2023-05-07T01:20:22;6.63;;;5.17;;
417;SDS011;49;48.530;9.200;2023-05-07T01:22:50;14.07;;;5.50;;
417;SDS011;49;48.530;9.200;2023-05-07T01:25:18;10.43;;;4.77;;
417;SDS011;49;48.530;9.200;2023-05-07T01:27:45;15.63;;;5.30;;
417;SDS011;49;48.530;9.200;2023-05-07T01:30:12;13.50;;;5.70;;
417;SDS011;49;48.530;9.200;2023-05-07T01:32:40;12.63;;;5.50;;
417;SDS011;49;48.530;9.200;2023-05-07T01:35:09;12.80;;;5.60;;
417;SDS011;49;48.530;9.200;2023-05-07T01:37:38;9.80;;;5.43;;
417;SDS011;49;48.530;9.200;2023-05-07T01:40:08;6.97;;;5.40;;
417;SDS011;49;48.530;9.200;2023-05-07T01:42:35;9.37;;;4.87;;
417;SDS011;49;48.530;9.200;2023-05-07T01:45:03;12.03;;;5.20;;
417;SDS011;49;48.530;9.200;2023-05-07T01:47:30;11.57;;;5.97;;
417;SDS011;49;48.530;9.200;2023-05-07T01:49:58;10.60;;;5.30;;
417;SDS011;49;48.530;9.200;2023-05-07T01:52:25;12.27;;;5.10;;
417;SDS011;49;48.530;9.200;2023-05-07T01:54:53;13.47;;;5.30;;
417;SDS011;49;48.530;9.200;2023-05-07T01:57:21;9.70;;;5.20;;
417;SDS011;49;48.530;9.200;2023-05-07T01:59:48;10.47;;;5.50;;
417;SDS011;49;48.530;9.200;2023-05-07T02:02:15;8.73;;;5.83;;
417;SDS011;49;48.530;9.200;2023-05-07T02:04:42;6.73;;;5.13;;
417;SDS011;49;48.530;9.200;2023-05-07T02:07:09;7.33;;;5.30;;
417;SDS011;49;48.530;9.200;2023-05-07T02:09:36;10.63;;;6.00;;
417;SDS011;49;48.530;9.200;2023-05-07T02:12:03;8.63;;;5.30;;
417;SDS011;49;48.530;9.200;2023-05-07T02:14:32;14.23;;;5.60;;
417;SDS011;49;48.530;9.200;2023-05-07T02:16:58;7.93;;;5.47;;
417;SDS011;49;48.530;9.200;2023-05-07T02:19:25;9.70;;;5.73;;
417;SDS011;49;48.530;9.200;2023-05-07T02:21:52;20.13;;;6.53;;
417;SDS011;49;48.530;9.200;2023-05-07T02:24:20;10.27;;;5.97;;
417;SDS011;49;48.530;9.200;2023-05-07T02:26:47;7.30;;;5.53;;
417;SDS011;49;48.530;9.200;2023-05-07T02:29:14;15.93;;;6.17;;
417;SDS011;49;48.530;9.200;2023-05-07T02:31:42;18.77;;;6.00;;
417;SDS011;49;48.530;9.200;2023-05-07T02:34:09;6.00;;;5.53;;
417;SDS011;49;48.530;9.200;2023-05-07T02:36:36;13.33;;;6.03;;
417;SDS011;49;48.530;9.200;2023-05-07T02:39:03;8.23;;;5.10;;
417;SDS011;49;48.530;9.200;2023-05-07T02:41:30;11.60;;;5.87;;
417;SDS011;49;48.530;9.200;2023-05-07T02:43:57;7.47;;;5.20;;
417;SDS011;49;48.530;9.200;2023-05-07T02:46:23;9.27;;;5.20;;
417;SDS011;49;48.530;9.200;2023-05-07T02:48:52;10.60;;;5.50;;
417;SDS011;49;48.530;9.200;2023-05-07T02:51:19;6.80;;;5.23;;
417;SDS011;49;48.530;9.200;2023-05-07T02:53:47;6.70;;;5.60;;
417;SDS011;49;48.530;9.200;2023-05-07T02:56:14;5.00;;;4.63;;
417;SDS011;49;48.530;9.200;2023-05-07T02:58:41;7.13;;;5.20;;
417;SDS011;49;48.530;9.200;2023-05-07T03:01:08;13.53;;;5.53;;
417;SDS011;49;48.530;9.200;2023-05-07T03:03:35;10.70;;;5.40;;
417;SDS011;49;48.530;9.200;2023-05-07T03:06:04;7.37;;;5.20;;
417;SDS011;49;48.530;9.200;2023-05-07T03:08:31;9.23;;;5.90;;
417;SDS011;49;48.530;9.200;2023-05-07T03:10:58;11.00;;;5.67;;
417;SDS011;49;48.530;9.200;2023-05-07T03:13:25;7.30;;;5.80;;
417;SDS011;49;48.530;9.200;2023-05-07T03:15:52;12.50;;;6.37;;
417;SDS011;49;48.530;9.200;2023-05-07T03:18:19;9.00;;;5.97;;
417;SDS011;49;48.530;9.200;2023-05-07T03:20:46;10.90;;;6.57;;
417;SDS011;49;48.530;9.200;2023-05-07T03:23:15;11.53;;;6.17;;
417;SDS011;49;48.530;9.200;2023-05-07T03:25:42;14.03;;;5.60;;
417;SDS011;49;48.530;9.200;2023-05-07T03:28:09;8.80;;;6.10;;
417;SDS011;49;48.530;9.200;2023-05-07T03:30:36;12.60;;;5.90;;
417;SDS011;49;48.530;9.200;2023-05-07T03:33:03;19.13;;;5.20;;
417;SDS011;49;48.530;9.200;2023-05-07T03:35:29;10.03;;;5.57;;
417;SDS011;49;48.530;9.200;2023-05-07T03:37:56;11.17;;;5.33;;
417;SDS011;49;48.530;9.200;2023-05-07T03:40:24;11.27;;;6.10;;
417;SDS011;49;48.530;9.200;2023-05-07T03:42:51;11.03;;;5.97;;
417;SDS011;49;48.530;9.200;2023-05-07T03:45:19;9.50;;;5.43;;
417;SDS011;49;48.530;9.200;2023-05-07T03:47:46;11.83;;;5.53;;
417;SDS011;49;48.530;9.200;2023-05-07T03:50:13;8.47;;;6.03;;
417;SDS011;49;48.530;9.200;2023-05-07T03:52:40;9.13;;;5.63;;
417;SDS011;49;48.530;9.200;2023-05-07T03:55:07;14.73;;;6.40;;
417;SDS011;49;48.530;9.200;2023-05-07T03:57:36;10.60;;;5.70;;
417;SDS011;49;48.530;9.200;2023-05-07T04:00:03;9.40;;;6.10;;
417;SDS011;49;48.530;9.200;2023-05-07T04:02:32;22.37;;;9.07;;
417;SDS011;49;48.530;9.200;2023-05-07T04:04:59;13.87;;;6.23;;
417;SDS011;49;48.530;9.200;2023-05-07T04:07:26;14.23;;;6.60;;
417;SDS011;49;48.530;9.200;2023-05-07T04:09:53;14.73;;;6.10;;
417;SDS011;49;48.530;9.200;2023-05-07T04:12:20;14.30;;;7.00;;
417;SDS011;49;48.530;9.200;2023-05-07T04:14:48;9.20;;;5.33;;
417;SDS011;49;48.530;9.200;2023-05-07T04:17:15;9.67;;;6.47;;
417;SDS011;49;48.530;9.200;2023-05-07T04:19:42;12.13;;;6.00;;
417;SDS011;49;48.530;9.200;2023-05-07T04:22:10;9.30;;;6.43;;
417;SDS011;49;48.530;9.200;2023-05-07T04:24:37;8.57;;;6.40;;
417;SDS011;49;48.530;9.200;2023-05-07T04:27:04;7.10;;;5.83;;
417;SDS011;49;48.530;9.200;2023-05-07T04:29:31;13.90;;;6.00;;
417;SDS011;49;48.530;9.200;2023-05-07T04:31:59;8.97;;;5.90;;
417;SDS011;49;48.530;9.200;2023-05-07T04:34:26;8.40;;;5.90;;
417;SDS011;49;48.530;9.200;2023-05-07T04:36:53;11.70;;;6.27;;
417;SDS011;49;48.530;9.200;2023-05-07T04:39:20;10.27;;;7.10;;
417;SDS011;49;48.530;9.200;2023-05-07T04:41:47;10.07;;;6.83;;
417;SDS011;49;48.530;9.200;2023-05-07T04:44:14;10.13;;;6.20;;
417;SDS011;49;48.530;9.200;2023-05-07T04:46:41;7.73;;;5.40;;
417;SDS011;49;48.530;9.200;2023-05-07T04:49:10;9.50;;;5.70;;
417;SDS011;49;48.530;9.200;2023-05-07T04:51:37;10.47;;;6.30;;
417;SDS011;49;48.530;9.200;2023-05-07T04:54:07;9.33;;;6.23;;
417;SDS011;49;48.530;9.200;2023-05-07T04:56:34;6.60;;;5.90;;
417;SDS011;49;48.530;9.200;2023-05-07T04:59:01;13.97;;;6.53;;
417;SDS011;49;48.530;9.200;2023-05-07T05:01:28;9.73;;;6.30;;
417;SDS011;49;48.530;9.200;2023-05-07T05:03:55;8.70;;;6.23;;
417;SDS011;49;48.530;9.200;2023-05-07T05:06:23;9.33;;;5.53;;
417;SDS011;49;48.530;9.200;2023-05-07T05:08:50;14.47;;;6.20;;
417;SDS011;49;48.530;9.200;2023-05-07T05:11:17;11.97;;;6.10;;
417;SDS011;49;48.530;9.200;2023-05-07T05:13:44;9.90;;;5.80;;
417;SDS011;49;48.530;9.200;2023-05-07T05:16:13;16.57;;;5.37;;
417;SDS011;49;48.530;9.200;2023-05-07T05:18:40;11.67;;;6.13;;
417;SDS011;49;48.530;9.200;2023-05-07T05:21:06;9.13;;;5.20;;
417;SDS011;49;48.530;9.200;2023-05-07T05:23:35;11.17;;;6.13;;
417;SDS011;49;48.530;9.200;2023-05-07T05:26:02;7.50;;;5.20;;
417;SDS011;49;48.530;9.200;2023-05-07T05:28:28;17.60;;;5.60;;
417;SDS011;49;48.530;9.200;2023-05-07T05:30:55;7.60;;;4.37;;
417;SDS011;49;48.530;9.200;2023-05-07T05:33:22;8.47;;;4.70;;
417;SDS011;49;48.530;9.200;2023-05-07T05:35:49;8.70;;;4.60;;
417;SDS011;49;48.530;9.200;2023-05-07T05:38:16;6.03;;;4.20;;
417;SDS011;49;48.530;9.200;2023-05-07T05:40:45;4.40;;;3.70;;
417;SDS011;49;48.530;9.200;2023-05-07T05:43:12;5.73;;;4.00;;
417;SDS011;49;48.530;9.200;2023-05-07T05:45:39;6.53;;;3.50;;
417;SDS011;49;48.530;9.200;2023-05-07T05:48:06;11.10;;;3.67;;
417;SDS011;49;48.530;9.200;2023-05-07T05:50:33;7.33;;;3.77;;
417;SDS011;49;48.530;9.200;2023-05-07T05:53:01;8.67;;;4.50;;
417;SDS011;49;48.530;9.200;2023-05-07T05:55:28;5.53;;;3.80;;
417;SDS011;49;48.530;9.200;2023-05-07T05:57:58;10.43;;;3.87;;
417;SDS011;49;48.530;9.200;2023-05-07T06:00:25;11.03;;;4.10;;
417;SDS011;49;48.530;9.200;2023-05-07T06:02:52;5.60;;;3.73;;
417;SDS011;49;48.530;9.200;2023-05-07T06:05:19;8.83;;;3.67;;
417;SDS011;49;48.530;9.200;2023-05-07T06:07:46;5.37;;;3.40;;
417;SDS011;49;48.530;9.200;2023-05-07T06:10:13;12.43;;;4.13;;
417;SDS011;49;48.530;9.200;2023-05-07T06:12:40;6.57;;;3.87;;
417;SDS011;49;48.530;9.200;2023-05-07T06:15:09;12.43;;;3.70;;
417;SDS011;49;48.530;9.200;2023-05-07T06:17:36;10.10;;;4.27;;
417;SDS011;49;48.530;9.200;2023-05-07T06:20:03;7.13;;;4.00;;
417;SDS011;49;48.530;9.200;2023-05-07T06:22:31;11.70;;;4.27;;
417;SDS011;49;48.530;9.200;2023-05-07T06:24:58;6.40;;;3.60;;
417;SDS011;49;48.530;9.200;2023-05-07T06:27:25;13.97;;;3.80;;
417;SDS011;49;48.530;9.200;2023-05-07T06:29:53;6.90;;;3.47;;
417;SDS011;49;48.530;9.200;2023-05-07T06:32:21;10.13;;;4.00;;
417;SDS011;49;48.530;9.200;2023-05-07T06:34:48;13.50;;;3.30;;
417;SDS011;49;48.530;9.200;2023-05-07T06:37:15;7.57;;;3.90;;
417;SDS011;49;48.530;9.200;2023-05-07T06:39:42;11.33;;;4.67;;
417;SDS011;49;48.530;9.200;2023-05-07T06:42:09;4.77;;;3.60;;
417;SDS011;49;48.530;9.200;2023-05-07T06:44:35;6.17;;;3.53;;
417;SDS011;49;48.530;9.200;2023-05-07T06:47:02;7.93;;;3.47;;
417;SDS011;49;48.530;9.200;2023-05-07T06:49:31;8.37;;;3.63;;
417;SDS011;49;48.530;9.200;2023-05-07T06:51:58;7.47;;;4.40;;
417;SDS011;49;48.530;9.200;2023-05-07T06:54:26;5.97;;;3.70;;
417;SDS011;49;48.530;9.200;2023-05-07T06:56:53;5.60;;;3.77;;
417;SDS011;49;48.530;9.200;2023-05-07T06:59:20;7.53;;;3.50;;
417;SDS011;49;48.530;9.200;2023-05-07T07:01:46;7.90;;;3.47;;
417;SDS011;49;48.530;9.200;2023-05-07T07:04:13;10.83;;;4.47;;
417;SDS011;49;48.530;9.200;2023-05-07T07:06:41;7.40;;;3.73;;
417;SDS011;49;48.530;9.200;2023-05-07T07:09:08;10.03;;;4.30;;
417;SDS011;49;48.530;9.200;2023-05-07T07:11:35;10.33;;;3.80;;
417;SDS011;49;48.530;9.200;2023-05-07T07:14:02;9.70;;;3.50;;
417;SDS011;49;48.530;9.200;2023-05-07T07:16:30;4.93;;;3.50;;
417;SDS011;49;48.530;9.200;2023-05-07T07:18:57;7.97;;;4.00;;
417;SDS011;49;48.530;9.200;2023-05-07T07:21:23;5.13;;;3.60;;
417;SDS011;49;48.530;9.200;2023-05-07T07:23:52;7.10;;;3.23;;
417;SDS011;49;48.530;9.200;2023-05-07T07:26:18;7.47;;;3.57;;
417;SDS011;49;48.530;9.200;2023-05-07T07:28:45;9.10;;;3.60;;
417;SDS011;49;48.530;9.200;2023-05-07T07:31:12;6.80;;;3.37;;
417;SDS011;49;48.530;9.200;2023-05-07T07:33:40;6.73;;;3.60;;
417;SDS011;49;48.530;9.200;2023-05-07T07:36:07;6.20;;;3.20;;
417;SDS011;49;48.530;9.200;2023-05-07T07:38:34;9.90;;;3.63;;
417;SDS011;49;48.530;9.200;2023-05-07T07:41:02;5.27;;;4.07;;
417;SDS011;49;48.530;9.200;2023-05-07T07:43:29;11.67;;;3.80;;
417;SDS011;49;48.530;9.200;2023-05-07T07:45:56;11.00;;;3.10;;
417;SDS011;49;48.530;9.200;2023-05-07T07:48:23;7.90;;;3.60;;
417;SDS011;49;48.530;9.200;2023-05-07T07:50:50;5.37;;;3.27;;
417;SDS011;49;48.530;9.200;2023-05-07T07:53:17;5.33;;;3.40;;
417;SDS011;49;48.530;9.200;2023-05-07T07:55:44;6.10;;;3.73;;
417;SDS011;49;48.530;9.200;2023-05-07T07:58:12;4.53;;;3.20;;
417;SDS011;49;48.530;9.200;2023-05-07T08:00:39;5.10;;;4.00;;
417;SDS011;49;48.530;9.200;2023-05-07T08:03:08;4.60;;;3.43;;
417;SDS011;49;48.530;9.200;2023-05-07T08:05:35;6.07;;;3.23;;
417;SDS011;49;48.530;9.200;2023-05-07T08:08:03;5.80;;;3.80;;
417;SDS011;49;48.530;9.200;2023-05-07T08:10:30;9.23;;;3.63;;
417;SDS011;49;48.530;9.200;2023-05-07T08:12:59;8.03;;;3.73;;
417;SDS011;49;48.530;9.200;2023-05-07T08:15:28;7.53;;;3.60;;
417;SDS011;49;48.530;9.200;2023-05-07T08:17:54;4.10;;;3.70;;
417;SDS011;49;48.530;9.200;2023-05-07T08:20:22;8.00;;;3.70;;
417;SDS011;49;48.530;9.200;2023-05-07T08:22:49;7.40;;;4.07;;
417;SDS011;49;48.530;9.200;2023-05-07T08:25:17;6.60;;;4.00;;
417;SDS011;49;48.530;9.200;2023-05-07T08:27:44;5.00;;;4.17;;
417;SDS011;49;48.530;9.200;2023-05-07T08:30:11;7.57;;;4.03;;
417;SDS011;49;48.530;9.200;2023-05-07T08:32:40;9.77;;;4.70;;
417;SDS011;49;48.530;9.200;2023-05-07T08:35:08;6.90;;;4.07;;
417;SDS011;49;48.530;9.200;2023-05-07T08:37:35;10.43;;;4.03;;
417;SDS011;49;48.530;9.200;2023-05-07T08:40:02;4.93;;;3.77;;
417;SDS011;49;48.530;9.200;2023-05-07T08:42:31;6.80;;;4.37;;
417;SDS011;49;48.530;9.200;2023-05-07T08:45:01;11.60;;;4.67;;
417;SDS011;49;48.530;9.200;2023-05-07T08:47:33;6.47;;;4.30;;
417;SDS011;49;48.530;9.200;2023-05-07T08:50:07;9.20;;;4.50;;
417;SDS011;49;48.530;9.200;2023-05-07T08:52:34;8.87;;;4.30;;
417;SDS011;49;48.530;9.200;2023-05-07T08:55:02;5.80;;;4.43;;
417;SDS011;49;48.530;9.200;2023-05-07T08:57:29;11.77;;;4.03;;
417;SDS011;49;48.530;9.200;2023-05-07T08:59:56;6.30;;;4.20;;
417;SDS011;49;48.530;9.200;2023-05-07T09:02:23;5.30;;;3.30;;
417;SDS011;49;48.530;9.200;2023-05-07T09:04:50;9.90;;;3.73;;
417;SDS011;49;48.530;9.200;2023-05-07T09:07:19;23.17;;;3.33;;
417;SDS011;49;48.530;9.200;2023-05-07T09:09:47;11.20;;;4.07;;
417;SDS011;49;48.530;9.200;2023-05-07T09:12:14;7.03;;;4.27;;
417;SDS011;49;48.530;9.200;2023-05-07T09:14:41;5.57;;;3.77;;
417;SDS011;49;48.530;9.200;2023-05-07T09:17:08;6.17;;;4.30;;
417;SDS011;49;48.530;9.200;2023-05-07T09:19:34;4.90;;;4.30;;
417;SDS011;49;48.530;9.200;2023-05-07T09:22:02;5.13;;;4.30;;
417;SDS011;49;48.530;9.200;2023-05-07T09:24:30;12.50;;;4.70;;
417;SDS011;49;48.530;9.200;2023-05-07T09:27:01;6.93;;;4.23;;
417;SDS011;49;48.530;9.200;2023-05-07T09:29:28;10.23;;;4.00;;
417;SDS011;49;48.530;9.200;2023-05-07T09:32:00;8.10;;;4.00;;
417;SDS011;49;48.530;9.200;2023-05-07T09:34:27;13.47;;;3.77;;
417;SDS011;49;48.530;9.200;2023-05-07T09:36:54;5.90;;;3.63;;
417;SDS011;49;48.530;9.200;2023-05-07T09:39:22;6.23;;;3.67;;
417;SDS011;49;48.530;9.200;2023-05-07T09:41:51;9.63;;;3.30;;
417;SDS011;49;48.530;9.200;2023-05-07T09:44:19;7.90;;;3.50;;
417;SDS011;49;48.530;9.200;2023-05-07T09:46:47;5.70;;;4.20;;
417;SDS011;49;48.530;9.200;2023-05-07T09:49:21;5.40;;;3.30;;
417;SDS011;49;48.530;9.200;2023-05-07T09:51:49;4.90;;;4.10;;
417;SDS011;49;48.530;9.200;2023-05-07T09:54:16;5.83;;;2.90;;
417;SDS011;49;48.530;9.200;2023-05-07T09:56:43;4.77;;;3.30;;
417;SDS011;49;48.530;9.200;2023-05-07T09:59:13;7.13;;;3.10;;
417;SDS011;49;48.530;9.200;2023-05-07T10:01:42;3.70;;;2.97;;
417;SDS011;49;48.530;9.200;2023-05-07T10:04:10;4.20;;;3.30;;
417;SDS011;49;48.530;9.200;2023-05-07T10:06:37;6.00;;;3.00;;
417;SDS011;49;48.530;9.200;2023-05-07T10:09:05;4.97;;;3.00;;
417;SDS011;49;48.530;9.200;2023-05-07T10:11:32;3.70;;;3.00;;
417;SDS011;49;48.530;9.200;2023-05-07T10:14:00;10.60;;;3.47;;
417;SDS011;49;48.530;9.200;2023-05-07T10:16:28;7.20;;;3.27;;
417;SDS011;49;48.530;9.200;2023-05-07T10:18:58;5.00;;;3.00;;
417;SDS011;49;48.530;9.200;2023-05-07T10:21:25;4.97;;;2.80;;
417;SDS011;49;48.530;9.200;2023-05-07T10:23:56;4.70;;;2.97;;
417;SDS011;49;48.530;9.200;2023-05-07T10:26:25;4.90;;;3.23;;
417;SDS011;49;48.530;9.200;2023-05-07T10:28:56;7.33;;;2.53;;
417;SDS011;49;48.530;9.200;2023-05-07T10:31:55;6.00;;;2.70;;
417;SDS011;49;48.530;9.200;2023-05-07T10:34:34;5.20;;;3.20;;
417;SDS011;49;48.530;9.200;2023-05-07T10:37:03;4.10;;;2.63;;
417;SDS011;49;48.530;9.200;2023-05-07T10:39:30;3.50;;;2.33;;
417;SDS011;49;48.530;9.200;2023-05-07T10:42:06;3.03;;;2.37;;
417;SDS011;49;48.530;9.200;2023-05-07T10:44:34;7.70;;;3.00;;
417;SDS011;49;48.530;9.200;2023-05-07T10:47:10;3.13;;;2.40;;
417;SDS011;49;48.530;9.200;2023-05-07T10:52:43;8.07;;;3.00;;
417;SDS011;49;48.530;9.200;2023-05-07T10:55:20;3.50;;;2.43;;
417;SDS011;49;48.530;9.200;2023-05-07T10:57:50;11.40;;;2.27;;
417;SDS011;49;48.530;9.200;2023-05-07T11:03:13;3.87;;;2.47;;
417;SDS011;49;48.530;9.200;2023-05-07T11:05:41;7.33;;;2.57;;
417;SDS011;49;48.530;9.200;2023-05-07T11:08:09;5.53;;;2.80;;
417;SDS011;49;48.530;9.200;2023-05-07T11:10:48;4.40;;;2.57;;
417;SDS011;49;48.530;9.200;2023-05-07T11:16:16;3.40;;;2.67;;
417;SDS011;49;48.530;9.200;2023-05-07T11:18:48;3.37;;;2.50;;
417;SDS011;49;48.530;9.200;2023-05-07T11:21:31;4.00;;;2.43;;
417;SDS011;49;48.530;9.200;2023-05-07T11:23:59;4.40;;;2.67;;
417;SDS011;49;48.530;9.200;2023-05-07T11:26:29;5.50;;;2.90;;
417;SDS011;49;48.530;9.200;2023-05-07T11:29:10;5.20;;;2.40;;
417;SDS011;49;48.530;9.200;2023-05-07T11:31:37;15.60;;;4.67;;
417;SDS011;49;48.530;9.200;2023-05-07T11:34:06;5.03;;;2.73;;
417;SDS011;49;48.530;9.200;2023-05-07T11:36:33;5.10;;;2.90;;
417;SDS011;49;48.530;9.200;2023-05-07T11:39:00;7.57;;;2.73;;
417;SDS011;49;48.530;9.200;2023-05-07T11:41:36;6.10;;;2.87;;
417;SDS011;49;48.530;9.200;2023-05-07T11:44:03;7.90;;;3.40;;
417;SDS011;49;48.530;9.200;2023-05-07T11:46:30;6.30;;;3.13;;
417;SDS011;49;48.530;9.200;2023-05-07T11:48:58;4.40;;;2.80;;
417;SDS011;49;48.530;9.200;2023-05-07T11:51:27;3.70;;;2.60;;
417;SDS011;49;48.530;9.200;2023-05-07T11:53:54;4.20;;;2.50;;
417;SDS011;49;48.530;9.200;2023-05-07T11:56:21;5.07;;;2.70;;
417;SDS011;49;48.530;9.200;2023-05-07T11:58:49;5.77;;;3.27;;
417;SDS011;49;48.530;9.200;2023-05-07T12:01:17;8.20;;;3.00;;
417;SDS011;49;48.530;9.200;2023-05-07T12:03:44;5.23;;;2.80;;
417;SDS011;49;48.530;9.200;2023-05-07T12:06:12;4.10;;;2.70;;
417;SDS011;49;48.530;9.200;2023-05-07T12:08:42;4.23;;;3.27;;
417;SDS011;49;48.530;9.200;2023-05-07T12:11:14;6.03;;;2.70;;
417;SDS011;49;48.530;9.200;2023-05-07T12:13:43;6.37;;;3.00;;
417;SDS011;49;48.530;9.200;2023-05-07T12:16:10;8.87;;;3.70;;
417;SDS011;49;48.530;9.200;2023-05-07T12:18:37;6.33;;;2.93;;
417;SDS011;49;48.530;9.200;2023-05-07T12:21:05;5.80;;;3.30;;
417;SDS011;49;48.530;9.200;2023-05-07T12:23:33;6.80;;;3.13;;
417;SDS011;49;48.530;9.200;2023-05-07T12:26:03;4.80;;;2.70;;
417;SDS011;49;48.530;9.200;2023-05-07T12:28:31;22.53;;;2.90;;
417;SDS011;49;48.530;9.200;2023-05-07T12:31:03;5.27;;;2.83;;
417;SDS011;49;48.530;9.200;2023-05-07T12:33:30;6.73;;;2.80;;
417;SDS011;49;48.530;9.200;2023-05-07T12:35:58;3.77;;;2.73;;
417;SDS011;49;48.530;9.200;2023-05-07T12:38:32;5.90;;;3.10;;
417;SDS011;49;48.530;9.200;2023-05-07T12:41:02;4.70;;;3.00;;
417;SDS011;49;48.530;9.200;2023-05-07T12:43:30;11.90;;;3.40;;
417;SDS011;49;48.530;9.200;2023-05-07T12:45:57;5.23;;;3.03;;
417;SDS011;49;48.530;9.200;2023-05-07T12:48:27;5.93;;;3.30;;
417;SDS011;49;48.530;9.200;2023-05-07T12:50:54;6.20;;;2.90;;
417;SDS011;49;48.530;9.200;2023-05-07T12:53:22;3.63;;;2.83;;
417;SDS011;49;48.530;9.200;2023-05-07T12:55:51;4.63;;;3.00;;
417;SDS011;49;48.530;9.200;2023-05-07T12:58:21;5.20;;;3.30;;
417;SDS011;49;48.530;9.200;2023-05-07T13:00:51;4.40;;;2.93;;
417;SDS011;49;48.530;9.200;2023-05-07T13:03:28;10.10;;;2.73;;
417;SDS011;49;48.530;9.200;2023-05-07T13:05:57;6.33;;;2.77;;
417;SDS011;49;48.530;9.200;2023-05-07T13:08:26;4.13;;;2.67;;
417;SDS011;49;48.530;9.200;2023-05-07T13:10:54;5.17;;;2.90;;
417;SDS011;49;48.530;9.200;2023-05-07T13:13:22;7.80;;;3.27;;
417;SDS011;49;48.530;9.200;2023-05-07T13:15:50;5.83;;;3.00;;
417;SDS011;49;48.530;9.200;2023-05-07T13:18:17;10.53;;;3.40;;
417;SDS011;49;48.530;9.200;2023-05-07T13:20:43;13.73;;;4.23;;
417;SDS011;49;48.530;9.200;2023-05-07T13:23:10;5.17;;;3.10;;
417;SDS011;49;48.530;9.200;2023-05-07T13:25:37;5.77;;;3.30;;
417;SDS011;49;48.530;9.200;2023-05-07T13:28:04;6.33;;;3.23;;
417;SDS011;49;48.530;9.200;2023-05-07T13:30:33;6.50;;;3.23;;
417;SDS011;49;48.530;9.200;2023-05-07T13:33:00;17.80;;;4.47;;
417;SDS011;49;48.530;9.200;2023-05-07T13:35:27;8.50;;;4.20;;
417;SDS011;49;48.530;9.200;2023-05-07T13:37:53;16.87;;;5.57;;
417;SDS011;49;48.530;9.200;2023-05-07T13:40:21;12.70;;;5.30;;
417;SDS011;49;48.530;9.200;2023-05-07T13:42:48;11.97;;;4.10;;
417;SDS011;49;48.530;9.200;2023-05-07T13:45:15;6.90;;;4.13;;
417;SDS011;49;48.530;9.200;2023-05-07T13:47:44;10.67;;;4.10;;
417;SDS011;49;48.530;9.200;2023-05-07T13:50:11;13.30;;;3.73;;
417;SDS011;49;48.530;9.200;2023-05-07T13:52:40;6.93;;;4.40;;
417;SDS011;49;48.530;9.200;2023-05-07T13:55:08;4.73;;;3.90;;
417;SDS011;49;48.530;9.200;2023-05-07T13:57:36;12.43;;;4.77;;
417;SDS011;49;48.530;9.200;2023-05-07T14:00:03;8.93;;;4.10;;
417;SDS011;49;48.530;9.200;2023-05-07T14:02:31;11.50;;;5.13;;
417;SDS011;49;48.530;9.200;2023-05-07T14:04:59;16.13;;;5.27;;
417;SDS011;49;48.530;9.200;2023-05-07T14:07:26;16.70;;;5.50;;
417;SDS011;49;48.530;9.200;2023-05-07T14:09:54;14.10;;;6.00;;
417;SDS011;49;48.530;9.200;2023-05-07T14:12:22;11.40;;;5.43;;
417;SDS011;49;48.530;9.200;2023-05-07T14:14:49;12.33;;;5.37;;
417;SDS011;49;48.530;9.200;2023-05-07T14:17:16;10.30;;;5.90;;
417;SDS011;49;48.530;9.200;2023-05-07T14:19:43;13.63;;;5.50;;
417;SDS011;49;48.530;9.200;2023-05-07T14:22:12;12.37;;;5.00;;
417;SDS011;49;48.530;9.200;2023-05-07T14:24:39;13.13;;;5.20;;
417;SDS011;49;48.530;9.200;2023-05-07T14:27:06;12.20;;;5.40;;
417;SDS011;49;48.530;9.200;2023-05-07T14:29:33;25.00;;;6.43;;
417;SDS011;49;48.530;9.200;2023-05-07T14:32:01;10.50;;;4.80;;
417;SDS011;49;48.530;9.200;2023-05-07T14:34:28;18.60;;;5.70;;
417;SDS011;49;48.530;9.200;2023-05-07T14:36:55;9.93;;;5.00;;
417;SDS011;49;48.530;9.200;2023-05-07T14:39:23;13.77;;;5.10;;
417;SDS011;49;48.530;9.200;2023-05-07T14:41:50;9.57;;;5.63;;
417;SDS011;49;48.530;9.200;2023-05-07T14:44:19;8.37;;;4.93;;
417;SDS011;49;48.530;9.200;2023-05-07T14:46:46;11.27;;;5.40;;
417;SDS011;49;48.530;9.200;2023-05-07T14:49:13;9.83;;;6.53;;
417;SDS011;49;48.530;9.200;2023-05-07T14:51:42;9.60;;;5.03;;
417;SDS011;49;48.530;9.200;2023-05-07T14:54:09;8.00;;;5.37;;
417;SDS011;49;48.530;9.200;2023-05-07T14:56:38;8.70;;;5.20;;
417;SDS011;49;48.530;9.200;2023-05-07T14:59:05;10.27;;;6.07;;
417;SDS011;49;48.530;9.200;2023-05-07T15:01:32;12.30;;;8.17;;
417;SDS011;49;48.530;9.200;2023-05-07T15:04:00;14.93;;;6.10;;
417;SDS011;49;48.530;9.200;2023-05-07T15:06:30;8.17;;;4.57;;
417;SDS011;49;48.530;9.200;2023-05-07T15:08:58;10.73;;;5.30;;
417;SDS011;49;48.530;9.200;2023-05-07T15:11:26;8.67;;;4.80;;
417;SDS011;49;48.530;9.200;2023-05-07T15:13:55;17.70;;;5.73;;
417;SDS011;49;48.530;9.200;2023-05-07T15:16:22;11.40;;;4.60;;
417;SDS011;49;48.530;9.200;2023-05-07T15:18:49;8.13;;;3.90;;
417;SDS011;49;48.530;9.200;2023-05-07T15:21:16;9.07;;;4.03;;
417;SDS011;49;48.530;9.200;2023-05-07T15:23:43;6.50;;;4.00;;
417;SDS011;49;48.530;9.200;2023-05-07T15:26:10;8.07;;;3.53;;
417;SDS011;49;48.530;9.200;2023-05-07T15:28:37;6.13;;;3.40;;
417;SDS011;49;48.530;9.200;2023-05-07T15:31:06;17.33;;;3.23;;
417;SDS011;49;48.530;9.200;2023-05-07T15:33:34;10.00;;;3.70;;
417;SDS011;49;48.530;9.200;2023-05-07T15:36:01;4.70;;;3.63;;
417;SDS011;49;48.530;9.200;2023-05-07T15:38:28;10.03;;;3.20;;
417;SDS011;49;48.530;9.200;2023-05-07T15:40:55;4.27;;;3.30;;
417;SDS011;49;48.530;9.200;2023-05-07T15:43:22;7.67;;;3.67;;
417;SDS011;49;48.530;9.200;2023-05-07T15:45:50;7.13;;;3.57;;
417;SDS011;49;48.530;9.200;2023-05-07T15:48:19;5.97;;;4.40;;
417;SDS011;49;48.530;9.200;2023-05-07T15:50:47;5.70;;;3.83;;
417;SDS011;49;48.530;9.200;2023-05-07T15:53:17;6.53;;;3.93;;
417;SDS011;49;48.530;9.200;2023-05-07T15:55:43;6.63;;;3.83;;
417;SDS011;49;48.530;9.200;2023-05-07T15:58:10;10.47;;;3.60;;
417;SDS011;49;48.530;9.200;2023-05-07T16:00:37;6.90;;;3.77;;
417;SDS011;49;48.530;9.200;2023-05-07T16:03:06;6.93;;;3.90;;
417;SDS011;49;48.530;9.200;2023-05-07T16:05:35;4.73;;;3.27;;
417;SDS011;49;48.530;9.200;2023-05-07T16:08:02;6.67;;;3.60;;